Time;durP1;ratioP1;P1;durP2;ratioP2;P2;SDS_P1;SDS_P2;PMS_P1;PMS_P2;Temp;Humidity;BMP_temperature;BMP_pressure;BME280_temperature;BME280_humidity;BME280_pressure;Samples;Min_cycle;Max_cycle;Signal;HPM_P1;HPM_P2
2021/01/30 00:00:29;;;;;;;5.20;4.70;;;8.70;99.90;;;;;;5148536;27;20216;-74
2021/01/30 00:02:56;;;;;;;5.40;4.70;;;8.80;99.90;;;;;;5132258;27;20196;-74
2021/01/30 00:05:22;;;;;;;5.93;4.40;;;8.80;99.90;;;;;;5132107;27;20199;-73
2021/01/30 00:07:49;;;;;;;4.80;4.20;;;8.70;99.90;;;;;;5131535;27;20196;-74
2021/01/30 00:10:17;;;;;;;5.20;4.70;;;8.70;99.90;;;;;;5131850;27;20635;-74
2021/01/30 00:12:43;;;;;;;4.97;4.57;;;8.70;99.90;;;;;;5148816;27;20733;-74
2021/01/30 00:15:11;;;;;;;4.97;4.57;;;8.70;99.90;;;;;;5139238;27;20547;-73
2021/01/30 00:17:39;;;;;;;4.97;4.47;;;8.70;99.90;;;;;;5131821;27;20215;-73
2021/01/30 00:20:07;;;;;;;5.75;5.15;;;8.70;99.90;;;;;;5131651;27;20202;-73
2021/01/30 00:22:34;;;;;;;6.20;5.55;;;8.70;99.90;;;;;;5135588;27;20200;-74
2021/01/30 00:25:00;;;;;;;6.43;5.10;;;8.70;99.90;;;;;;5151621;27;20267;-73
2021/01/30 00:27:26;;;;;;;6.75;6.15;;;8.70;99.90;;;;;;5144348;27;20196;-73
2021/01/30 00:29:53;;;;;;;6.38;5.47;;;8.60;99.90;;;;;;5131738;27;20192;-73
2021/01/30 00:32:21;;;;;;;6.22;5.63;;;8.60;99.90;;;;;;5131440;27;20200;-74
2021/01/30 00:34:49;;;;;;;5.35;4.85;;;8.60;99.90;;;;;;5131431;27;20207;-74
2021/01/30 00:37:17;;;;;;;6.30;5.70;;;8.60;99.90;;;;;;5131248;27;20290;-72
2021/01/30 00:39:44;;;;;;;6.93;5.60;;;8.60;99.90;;;;;;5149763;27;20252;-74
2021/01/30 00:42:12;;;;;;;6.97;5.43;;;8.60;99.90;;;;;;5152302;27;20203;-74
2021/01/30 00:44:38;;;;;;;7.32;5.72;;;8.60;99.90;;;;;;5135794;27;20583;-74
2021/01/30 00:47:06;;;;;;;7.47;6.30;;;8.60;99.90;;;;;;5140928;27;20222;-73
2021/01/30 00:49:32;;;;;;;10.35;6.85;;;8.50;99.90;;;;;;5131972;27;20268;-73
2021/01/30 00:52:00;;;;;;;8.20;7.40;;;8.50;99.90;;;;;;5130559;27;20568;-75
2021/01/30 00:54:26;;;;;;;8.60;6.38;;;8.50;99.90;;;;;;5132049;27;20196;-75
2021/01/30 00:56:54;;;;;;;8.80;6.93;;;8.40;99.90;;;;;;5131281;27;20606;-75
2021/01/30 00:59:21;;;;;;;8.70;7.82;;;8.50;99.90;;;;;;5130840;27;20196;-75
2021/01/30 01:01:49;;;;;;;7.00;6.30;;;8.40;99.90;;;;;;5131167;27;20241;-72
2021/01/30 01:04:16;;;;;;;7.90;7.20;;;8.40;99.90;;;;;;5135729;27;20199;-74
2021/01/30 01:06:42;;;;;;;9.07;7.13;;;8.40;99.90;;;;;;5150814;27;20623;-73
2021/01/30 01:09:10;;;;;;;7.72;6.95;;;8.40;99.90;;;;;;5137158;27;20202;-74
2021/01/30 01:11:37;;;;;;;8.82;7.03;;;8.30;99.90;;;;;;5140763;27;20196;-73
2021/01/30 01:14:04;;;;;;;7.55;6.72;;;8.30;99.90;;;;;;5134102;27;20196;-73
2021/01/30 01:16:31;;;;;;;8.05;7.25;;;8.30;99.90;;;;;;5131057;27;20277;-73
2021/01/30 01:18:57;;;;;;;10.43;7.25;;;8.30;99.90;;;;;;5147067;27;20195;-73
2021/01/30 01:21:23;;;;;;;8.98;7.97;;;8.20;99.90;;;;;;5133856;27;20560;-73
2021/01/30 01:23:50;;;;;;;11.32;8.70;;;8.20;99.90;;;;;;5139724;27;20192;-73
2021/01/30 01:26:19;;;;;;;8.52;7.30;;;8.20;99.90;;;;;;5142570;27;20188;-73
2021/01/30 01:28:46;;;;;;;10.32;8.00;;;8.20;99.90;;;;;;5135922;27;20196;-73
2021/01/30 01:31:13;;;;;;;8.63;7.78;;;8.20;99.90;;;;;;5136731;27;20290;-73
2021/01/30 01:33:40;;;;;;;10.45;8.48;;;8.10;99.90;;;;;;5151322;27;20187;-73
2021/01/30 01:36:08;;;;;;;12.00;9.40;;;8.10;99.90;;;;;;5134689;27;20216;-74
2021/01/30 01:38:34;;;;;;;10.50;7.43;;;8.20;99.90;;;;;;5142959;27;20196;-74
2021/01/30 01:41:02;;;;;;;11.57;7.80;;;8.10;99.90;;;;;;5135102;27;20257;-74
2021/01/30 01:43:30;;;;;;;9.10;8.20;;;8.10;99.90;;;;;;5136102;27;20196;-74
2021/01/30 01:46:13;;;;;;;9.85;8.85;;;8.10;99.90;;;;;;5134956;27;20196;-73
2021/01/30 01:48:42;;;;;;;8.48;7.53;;;8.10;99.90;;;;;;5142901;27;20191;-74
2021/01/30 01:51:13;;;;;;;10.20;8.88;;;8.10;99.90;;;;;;5153278;27;20199;-74
2021/01/30 01:53:42;;;;;;;10.63;8.50;;;8.10;99.90;;;;;;5150076;27;20223;-74
2021/01/30 01:56:17;;;;;;;9.85;8.45;;;8.10;99.90;;;;;;5153797;27;20220;-73
2021/01/30 01:58:48;;;;;;;8.02;6.90;;;8.10;99.90;;;;;;5144143;27;20277;-73
2021/01/30 02:01:14;;;;;;;8.85;7.95;;;8.10;99.90;;;;;;5155848;27;20184;-73
2021/01/30 02:03:45;;;;;;;9.45;8.50;;;8.10;99.90;;;;;;5137252;27;20197;-72
2021/01/30 02:06:11;;;;;;;8.25;7.40;;;8.00;99.90;;;;;;5136784;27;20192;-74
2021/01/30 02:08:38;;;;;;;9.40;7.30;;;8.00;99.90;;;;;;5144282;27;20193;-75
2021/01/30 02:11:04;;;;;;;9.43;7.95;;;8.10;99.90;;;;;;5154252;27;20203;-74
2021/01/30 02:13:34;;;;;;;8.68;7.25;;;8.00;99.90;;;;;;5150793;27;20211;-72
2021/01/30 02:16:10;;;;;;;11.65;9.27;;;8.00;99.90;;;;;;5156153;27;20287;-72
2021/01/30 02:18:48;;;;;;;9.35;8.38;;;8.00;99.90;;;;;;5141012;27;20199;-73
2021/01/30 02:21:51;;;;;;;7.78;7.00;;;8.00;99.90;;;;;;5137055;27;20286;-74
2021/01/30 02:24:54;;;;;;;7.65;6.85;;;8.00;99.90;;;;;;5132934;27;20200;-72
2021/01/30 02:28:02;;;;;;;8.18;7.38;;;8.00;99.90;;;;;;5136946;27;20202;-74
2021/01/30 02:31:01;;;;;;;8.75;6.90;;;8.00;99.90;;;;;;5152504;27;20207;-74
2021/01/30 02:33:56;;;;;;;8.18;7.38;;;8.00;99.90;;;;;;5149012;27;20703;-75
2021/01/30 02:36:30;;;;;;;7.43;6.65;;;7.90;99.90;;;;;;5148342;27;20207;-74
2021/01/30 02:39:01;;;;;;;7.97;7.28;;;8.00;99.90;;;;;;5147407;27;20203;-74
2021/01/30 02:41:32;;;;;;;9.50;7.53;;;7.90;99.90;;;;;;5138572;27;20681;-74
2021/01/30 02:44:02;;;;;;;6.68;6.05;;;7.90;99.90;;;;;;5140145;27;20663;-73
2021/01/30 02:46:32;;;;;;;8.27;7.32;;;7.90;99.90;;;;;;5134050;27;20200;-73
2021/01/30 02:49:06;;;;;;;9.05;6.88;;;7.80;99.90;;;;;;5144060;27;20191;-73
2021/01/30 02:51:38;;;;;;;8.63;7.75;;;7.90;99.90;;;;;;5132161;27;20635;-73
2021/01/30 02:54:11;;;;;;;9.32;7.45;;;7.80;99.90;;;;;;5134089;27;20770;-73
2021/01/30 02:56:38;;;;;;;8.93;8.02;;;7.90;99.90;;;;;;5132925;27;20215;-74
2021/01/30 02:59:07;;;;;;;9.07;8.18;;;7.90;99.90;;;;;;5145911;27;20703;-73
2021/01/30 03:01:35;;;;;;;8.95;8.00;;;7.80;99.90;;;;;;5133650;27;20203;-73
2021/01/30 03:04:07;;;;;;;8.48;7.68;;;7.80;99.90;;;;;;5150909;27;20192;-72
2021/01/30 03:06:43;;;;;;;8.05;7.25;;;7.80;99.90;;;;;;5149938;27;20187;-74
2021/01/30 03:09:16;;;;;;;8.82;7.93;;;7.80;99.90;;;;;;5144175;27;20183;-74
2021/01/30 03:11:49;;;;;;;9.00;8.10;;;7.80;99.90;;;;;;5137567;27;20200;-74
2021/01/30 03:14:20;;;;;;;8.73;7.85;;;7.80;99.90;;;;;;5149693;27;20203;-74
2021/01/30 03:16:48;;;;;;;8.65;7.80;;;7.80;99.90;;;;;;5133434;27;20381;-74
2021/01/30 03:19:20;;;;;;;9.50;8.43;;;7.80;99.90;;;;;;5137599;27;20196;-74
2021/01/30 03:21:52;;;;;;;8.10;7.40;;;7.80;99.90;;;;;;5136464;27;20629;-74
2021/01/30 03:24:19;;;;;;;10.02;7.95;;;7.80;99.90;;;;;;5152717;27;20196;-74
2021/01/30 03:26:46;;;;;;;8.70;7.90;;;7.80;99.90;;;;;;5143544;27;20188;-74
2021/01/30 03:29:15;;;;;;;8.90;8.10;;;7.70;99.90;;;;;;5144851;27;20261;-72
2021/01/30 03:31:41;;;;;;;8.25;7.45;;;7.70;99.90;;;;;;5137065;27;20203;-75
2021/01/30 03:34:08;;;;;;;8.65;7.85;;;7.70;99.90;;;;;;5151011;27;20192;-74
2021/01/30 03:36:35;;;;;;;9.25;8.27;;;7.60;99.90;;;;;;5140595;27;20637;-74
2021/01/30 03:39:04;;;;;;;9.50;8.50;;;7.70;99.90;;;;;;5148865;27;20218;-74
2021/01/30 03:41:30;;;;;;;9.07;8.18;;;7.60;99.90;;;;;;5153075;27;20221;-73
2021/01/30 03:43:56;;;;;;;10.40;9.27;;;7.60;99.90;;;;;;5137988;27;20648;-73
2021/01/30 03:46:22;;;;;;;9.48;8.15;;;7.60;99.90;;;;;;5139433;27;20196;-73
2021/01/30 03:48:48;;;;;;;10.57;8.32;;;7.60;99.90;;;;;;5150071;27;20192;-73
2021/01/30 03:51:15;;;;;;;10.48;9.32;;;7.70;99.90;;;;;;5136775;27;20203;-74
2021/01/30 03:53:41;;;;;;;9.95;8.70;;;7.60;99.90;;;;;;5134491;27;20243;-73
2021/01/30 03:56:09;;;;;;;10.05;8.80;;;7.60;99.90;;;;;;5133885;27;20216;-73
2021/01/30 03:58:38;;;;;;;10.00;8.48;;;7.50;99.90;;;;;;5147246;27;20200;-73
2021/01/30 04:01:04;;;;;;;8.95;8.07;;;7.50;99.90;;;;;;5136969;27;20203;-74
2021/01/30 04:03:30;;;;;;;9.48;8.57;;;7.50;99.90;;;;;;5142055;27;20195;-74
2021/01/30 04:05:57;;;;;;;9.40;8.45;;;7.50;99.90;;;;;;5148158;27;20189;-74
2021/01/30 04:08:23;;;;;;;9.07;7.65;;;7.50;99.90;;;;;;5132020;27;20200;-74
2021/01/30 04:10:49;;;;;;;10.15;8.82;;;7.40;99.90;;;;;;5132375;27;20200;-74
2021/01/30 04:13:18;;;;;;;9.93;8.80;;;7.40;99.90;;;;;;5134886;27;20196;-75
2021/01/30 04:15:45;;;;;;;7.55;6.88;;;7.30;99.90;;;;;;5133158;27;20283;-72
2021/01/30 04:18:13;;;;;;;8.45;7.65;;;7.40;99.90;;;;;;5131814;27;20207;-73
2021/01/30 04:20:40;;;;;;;8.63;7.75;;;7.40;99.90;;;;;;5135015;27;20680;-73
2021/01/30 04:23:08;;;;;;;9.13;7.72;;;7.40;99.90;;;;;;5140265;27;20199;-76
2021/01/30 04:25:34;;;;;;;8.32;7.45;;;7.40;99.90;;;;;;5135756;27;20202;-75
2021/01/30 04:28:01;;;;;;;8.30;7.50;;;7.40;99.90;;;;;;5148981;27;20608;-74
2021/01/30 04:30:30;;;;;;;7.43;6.72;;;7.40;99.90;;;;;;5134793;27;20551;-75
2021/01/30 04:32:56;;;;;;;8.07;7.30;;;7.40;99.90;;;;;;5150113;27;20184;-74
2021/01/30 04:35:26;;;;;;;7.88;7.13;;;7.30;99.90;;;;;;5143036;27;20203;-74
2021/01/30 04:37:52;;;;;;;7.03;6.38;;;7.30;99.90;;;;;;5147142;27;20195;-74
2021/01/30 04:40:27;;;;;;;7.43;6.72;;;7.30;99.90;;;;;;5135721;27;20196;-73
2021/01/30 04:42:59;;;;;;;6.55;5.95;;;7.20;99.90;;;;;;5132308;27;20576;-74
2021/01/30 04:45:39;;;;;;;6.60;5.93;;;7.20;99.90;;;;;;5131996;27;20248;-73
2021/01/30 04:48:17;;;;;;;7.00;6.20;;;7.20;99.90;;;;;;5136356;27;20191;-74
2021/01/30 04:50:51;;;;;;;6.25;5.72;;;7.20;99.90;;;;;;5136734;27;20191;-74
2021/01/30 04:53:36;;;;;;;7.25;6.60;;;7.10;99.90;;;;;;5133539;27;20231;-73
2021/01/30 04:56:08;;;;;;;6.55;5.93;;;7.10;99.90;;;;;;5131755;27;20564;-74
2021/01/30 04:58:46;;;;;;;6.07;5.53;;;7.10;99.90;;;;;;5144463;27;20218;-74
2021/01/30 05:01:20;;;;;;;7.38;6.05;;;7.10;99.90;;;;;;5133684;27;20202;-73
2021/01/30 05:04:05;;;;;;;6.40;5.80;;;7.00;99.90;;;;;;5131448;27;20197;-73
2021/01/30 05:07:09;;;;;;;6.45;5.85;;;7.00;99.90;;;;;;5135083;27;20497;-73
2021/01/30 05:09:41;;;;;;;5.65;5.15;;;7.00;99.90;;;;;;5090151;27;20635;-73
2021/01/30 05:12:12;;;;;;;7.05;6.35;;;7.00;99.90;;;;;;5140938;27;20184;-74
2021/01/30 05:14:44;;;;;;;6.30;5.70;;;7.00;99.90;;;;;;5152183;27;20198;-75
2021/01/30 05:17:18;;;;;;;6.60;6.07;;;6.90;99.90;;;;;;5141991;27;20208;-74
2021/01/30 05:19:50;;;;;;;6.63;6.05;;;6.90;99.90;;;;;;5140319;27;20192;-74
2021/01/30 05:22:16;;;;;;;5.70;5.18;;;6.80;99.90;;;;;;5140956;27;20191;-75
2021/01/30 05:24:44;;;;;;;5.40;4.90;;;6.80;99.90;;;;;;5135476;27;20534;-75
2021/01/30 05:27:35;;;;;;;5.15;4.75;;;6.80;99.90;;;;;;5139445;27;20191;-75
2021/01/30 05:30:10;;;;;;;5.55;5.05;;;6.80;99.90;;;;;;5136279;27;20215;-75
2021/01/30 05:32:44;;;;;;;5.63;5.20;;;6.80;99.90;;;;;;5132435;27;20198;-74
2021/01/30 05:35:14;;;;;;;5.15;4.65;;;6.70;99.90;;;;;;5143961;27;20203;-75
2021/01/30 05:37:47;;;;;;;4.97;4.57;;;6.60;99.90;;;;;;5148272;27;20199;-74
2021/01/30 05:40:30;;;;;;;5.70;5.20;;;6.60;99.90;;;;;;5136346;27;20210;-75
2021/01/30 05:43:08;;;;;;;5.13;4.68;;;6.60;99.90;;;;;;5132698;27;20646;-74
2021/01/30 05:45:41;;;;;;;5.75;5.15;;;6.60;99.90;;;;;;5143820;27;20881;-74
2021/01/30 05:48:11;;;;;;;5.25;4.75;;;6.60;99.90;;;;;;5136885;27;20192;-74
2021/01/30 05:50:42;;;;;;;5.22;4.82;;;6.50;99.90;;;;;;5141148;27;20199;-74
2021/01/30 05:53:11;;;;;;;4.90;4.50;;;6.50;99.90;;;;;;5137392;27;20300;-75
2021/01/30 05:55:38;;;;;;;6.13;5.53;;;6.60;99.90;;;;;;5134782;27;20224;-75
2021/01/30 05:58:07;;;;;;;6.22;5.63;;;6.60;99.90;;;;;;5136990;27;20265;-75
2021/01/30 06:00:33;;;;;;;5.40;5.03;;;6.60;99.90;;;;;;5132407;27;20222;-74
2021/01/30 06:03:03;;;;;;;5.25;4.85;;;6.60;99.90;;;;;;5138915;27;20257;-74
2021/01/30 06:05:35;;;;;;;5.07;4.72;;;6.50;99.90;;;;;;5138684;27;20203;-74
2021/01/30 06:08:18;;;;;;;5.13;4.63;;;6.50;99.90;;;;;;5139843;27;20203;-74
2021/01/30 06:10:46;;;;;;;4.97;4.57;;;6.50;99.90;;;;;;5136313;27;20211;-74
2021/01/30 06:13:15;;;;;;;4.90;4.50;;;6.50;99.90;;;;;;5142284;27;20210;-74
2021/01/30 06:15:43;;;;;;;5.50;5.10;;;6.50;99.90;;;;;;5143277;27;20207;-74
2021/01/30 06:18:37;;;;;;;5.18;4.78;;;6.50;99.90;;;;;;5141696;27;20210;-74
2021/01/30 06:21:09;;;;;;;4.72;4.28;;;6.50;99.90;;;;;;5141740;27;20646;-73
2021/01/30 06:23:36;;;;;;;4.82;4.43;;;6.40;99.90;;;;;;5139524;27;20297;-74
2021/01/30 06:26:21;;;;;;;5.68;5.18;;;6.40;99.90;;;;;;5139091;27;20263;-74
2021/01/30 06:28:55;;;;;;;5.20;4.55;;;6.50;99.90;;;;;;5145505;27;20206;-73
2021/01/30 06:31:27;;;;;;;4.88;4.47;;;6.50;99.90;;;;;;5137035;27;20199;-74
2021/01/30 06:33:57;;;;;;;5.43;5.03;;;6.50;99.90;;;;;;5141742;27;20187;-74
2021/01/30 06:36:27;;;;;;;5.28;4.82;;;6.30;99.90;;;;;;5146073;27;20203;-74
2021/01/30 06:38:58;;;;;;;5.15;4.75;;;6.30;99.90;;;;;;5138051;27;20624;-73
2021/01/30 06:41:27;;;;;;;5.88;4.80;;;6.20;99.90;;;;;;5144520;27;20273;-74
2021/01/30 06:44:05;;;;;;;5.43;4.93;;;6.20;99.90;;;;;;5145759;27;20199;-74
2021/01/30 06:46:31;;;;;;;5.35;4.85;;;6.20;99.90;;;;;;5155173;27;20595;-74
2021/01/30 06:49:16;;;;;;;4.60;4.20;;;6.20;99.90;;;;;;5138075;27;20192;-75
2021/01/30 06:51:43;;;;;;;5.35;4.60;;;6.20;99.90;;;;;;5133680;27;20261;-75
2021/01/30 06:54:18;;;;;;;4.35;3.95;;;6.20;99.90;;;;;;5134748;27;20200;-75
2021/01/30 06:56:47;;;;;;;5.07;3.95;;;6.20;99.90;;;;;;5133539;27;20261;-75
2021/01/30 06:59:20;;;;;;;4.45;4.05;;;6.20;99.90;;;;;;5153721;27;20206;-75
2021/01/30 07:01:48;;;;;;;5.07;4.53;;;6.20;99.90;;;;;;5154223;27;20176;-74
2021/01/30 07:04:39;;;;;;;5.05;4.40;;;6.20;99.90;;;;;;5147124;27;20200;-74
2021/01/30 07:07:15;;;;;;;5.20;4.70;;;6.20;99.90;;;;;;5142355;27;20194;-73
2021/01/30 07:10:06;;;;;;;6.13;5.53;;;6.10;99.90;;;;;;5142473;27;20191;-74
2021/01/30 07:12:40;;;;;;;5.38;4.88;;;6.20;99.90;;;;;;5143303;27;20645;-74
2021/01/30 07:15:19;;;;;;;6.00;5.03;;;6.20;99.90;;;;;;5146290;27;20184;-73
2021/01/30 07:18:10;;;;;;;5.15;4.75;;;6.20;99.90;;;;;;5135445;27;20208;-74
2021/01/30 07:20:48;;;;;;;5.45;4.95;;;6.20;99.90;;;;;;5141265;27;20192;-74
2021/01/30 07:23:25;;;;;;;5.57;5.15;;;6.20;99.90;;;;;;5139566;27;20188;-73
2021/01/30 07:26:02;;;;;;;5.10;4.70;;;6.10;99.90;;;;;;5140011;27;20183;-74
2021/01/30 07:28:33;;;;;;;5.93;5.43;;;6.10;99.90;;;;;;5141346;27;20488;-73
2021/01/30 07:31:03;;;;;;;6.20;5.32;;;6.10;99.90;;;;;;5136345;27;20184;-73
2021/01/30 07:33:36;;;;;;;9.80;5.35;;;6.00;99.90;;;;;;5134037;27;20207;-73
2021/01/30 07:36:09;;;;;;;6.07;5.47;;;6.00;99.90;;;;;;5135323;27;20208;-73
2021/01/30 07:38:42;;;;;;;5.43;4.93;;;6.10;99.90;;;;;;5137588;27;20230;-73
2021/01/30 07:41:18;;;;;;;5.90;5.47;;;6.00;99.90;;;;;;5137910;27;20204;-73
2021/01/30 07:43:50;;;;;;;5.47;4.97;;;6.00;99.90;;;;;;5139076;27;20192;-73
2021/01/30 07:46:20;;;;;;;6.38;5.78;;;6.00;99.90;;;;;;5152176;27;20256;-73
2021/01/30 07:48:52;;;;;;;9.65;6.13;;;6.00;99.90;;;;;;5135816;27;20199;-73
2021/01/30 07:51:25;;;;;;;5.82;5.05;;;5.90;99.90;;;;;;5142042;27;20248;-75
2021/01/30 07:53:52;;;;;;;5.78;5.25;;;5.90;99.90;;;;;;5134987;27;20191;-74
2021/01/30 07:56:40;;;;;;;6.55;5.95;;;6.00;99.90;;;;;;5144885;27;20222;-74
2021/01/30 07:59:20;;;;;;;6.03;5.35;;;6.10;99.90;;;;;;5128851;27;20203;-74
2021/01/30 08:02:08;;;;;;;5.70;5.20;;;6.10;99.90;;;;;;5135616;27;20184;-73
2021/01/30 08:05:08;;;;;;;7.05;5.50;;;6.10;99.90;;;;;;5131539;27;20663;-73
2021/01/30 08:07:43;;;;;;;6.57;5.97;;;6.10;99.90;;;;;;5149242;27;20175;-73
2021/01/30 08:10:22;;;;;;;6.35;5.75;;;6.00;99.90;;;;;;5143404;27;20265;-74
2021/01/30 08:13:01;;;;;;;6.18;5.68;;;5.90;99.90;;;;;;5146329;27;20225;-74
2021/01/30 08:15:34;;;;;;;5.60;4.97;;;5.90;99.90;;;;;;5130951;27;20207;-75
2021/01/30 08:18:08;;;;;;;7.90;4.28;;;5.80;99.90;;;;;;5135137;27;20199;-75
2021/01/30 08:20:40;;;;;;;5.55;4.90;;;5.90;99.90;;;;;;5152787;27;20667;-74
2021/01/30 08:23:15;;;;;;;5.75;4.68;;;5.90;99.90;;;;;;5153061;27;20252;-74
2021/01/30 08:25:49;;;;;;;4.88;4.47;;;5.90;99.90;;;;;;5142167;27;20192;-74
2021/01/30 08:28:20;;;;;;;5.35;4.85;;;5.90;99.90;;;;;;5132555;27;20211;-74
2021/01/30 08:30:52;;;;;;;5.13;4.63;;;5.80;99.90;;;;;;5132385;27;20185;-74
2021/01/30 08:33:18;;;;;;;5.47;4.97;;;5.80;99.90;;;;;;5132148;27;20203;-74
2021/01/30 08:35:49;;;;;;;5.50;4.20;;;5.80;99.90;;;;;;5131209;27;20195;-74
2021/01/30 08:38:36;;;;;;;5.20;4.70;;;5.80;99.90;;;;;;5141126;27;20196;-74
2021/01/30 08:41:44;;;;;;;4.80;4.25;;;5.80;99.90;;;;;;5153020;27;20203;-72
2021/01/30 08:44:52;;;;;;;4.65;4.00;;;5.80;99.90;;;;;;5141865;27;20567;-72
2021/01/30 08:47:22;;;;;;;6.18;5.22;;;5.80;99.90;;;;;;5133003;27;20184;-73
2021/01/30 08:50:01;;;;;;;4.47;4.10;;;5.80;99.90;;;;;;5132560;27;20192;-72
2021/01/30 08:52:38;;;;;;;6.32;5.03;;;5.80;99.90;;;;;;5131432;27;20235;-73
2021/01/30 08:55:49;;;;;;;6.75;6.15;;;5.80;99.90;;;;;;5148532;27;20197;-71
2021/01/30 08:58:47;;;;;;;5.28;4.70;;;5.70;99.90;;;;;;5068550;28;20299;-71
2021/01/30 09:01:48;;;;;;;5.35;4.82;;;5.70;99.90;;;;;;5058268;28;20642;-71
2021/01/30 09:04:59;;;;;;;5.28;4.88;;;5.70;99.90;;;;;;5114237;27;20200;-70
2021/01/30 09:07:44;;;;;;;6.60;5.07;;;5.70;99.90;;;;;;5131996;27;20207;-72
2021/01/30 09:10:33;;;;;;;4.55;4.15;;;5.80;99.90;;;;;;5132170;28;20212;-72
2021/01/30 09:13:01;;;;;;;4.93;4.53;;;5.70;99.90;;;;;;5148643;27;20211;-73
2021/01/30 09:15:55;;;;;;;3.80;3.50;;;5.70;99.90;;;;;;5152014;27;20567;-73
2021/01/30 09:18:56;;;;;;;5.07;4.63;;;5.70;99.90;;;;;;5146895;27;20279;-73
2021/01/30 09:21:34;;;;;;;4.43;4.00;;;5.80;99.90;;;;;;5132085;27;20195;-72
2021/01/30 09:24:21;;;;;;;4.95;4.50;;;5.70;99.90;;;;;;5140887;27;20622;-72
2021/01/30 09:26:59;;;;;;;4.38;3.90;;;5.70;99.90;;;;;;5153386;27;20183;-73
2021/01/30 09:29:33;;;;;;;4.32;3.92;;;5.80;99.90;;;;;;5152998;27;20201;-72
2021/01/30 09:32:00;;;;;;;4.20;3.80;;;5.80;99.90;;;;;;5147732;27;20194;-74
2021/01/30 09:34:30;;;;;;;4.07;3.78;;;5.70;99.90;;;;;;5131717;27;20667;-73
2021/01/30 09:36:57;;;;;;;3.40;3.10;;;5.70;99.90;;;;;;5131961;27;20208;-72
2021/01/30 09:39:26;;;;;;;4.38;4.03;;;5.70;99.90;;;;;;5148809;27;20195;-71
2021/01/30 09:42:06;;;;;;;4.35;3.97;;;5.70;99.90;;;;;;5134227;27;20196;-71
2021/01/30 09:44:32;;;;;;;4.53;4.13;;;5.80;99.90;;;;;;5132268;27;20675;-71
2021/01/30 09:47:02;;;;;;;3.78;3.47;;;5.80;99.90;;;;;;5134809;27;20207;-71
2021/01/30 09:49:33;;;;;;;6.75;3.85;;;5.90;99.90;;;;;;5149582;27;20211;-71
2021/01/30 09:52:00;;;;;;;4.53;3.92;;;6.00;99.90;;;;;;5138428;27;20227;-71
2021/01/30 09:54:28;;;;;;;3.70;3.40;;;6.10;99.90;;;;;;5135427;27;20203;-71
2021/01/30 09:56:59;;;;;;;5.28;3.50;;;6.20;99.90;;;;;;5135208;27;20224;-71
2021/01/30 09:59:28;;;;;;;5.70;3.97;;;6.10;99.90;;;;;;5135295;27;20316;-71
2021/01/30 10:02:07;;;;;;;4.05;3.50;;;6.10;99.90;;;;;;5144312;27;20196;-71
2021/01/30 10:04:34;;;;;;;4.32;3.92;;;6.10;99.90;;;;;;5141212;27;20198;-71
2021/01/30 10:07:08;;;;;;;5.35;3.75;;;6.10;99.90;;;;;;5135167;27;20679;-72
2021/01/30 10:09:40;;;;;;;3.33;3.05;;;6.20;99.90;;;;;;5148988;27;20196;-72
2021/01/30 10:12:07;;;;;;;5.43;3.38;;;6.20;99.90;;;;;;5155671;27;20184;-71
2021/01/30 10:14:35;;;;;;;3.60;3.30;;;6.20;99.90;;;;;;5155485;27;20196;-71
2021/01/30 10:17:04;;;;;;;3.08;2.85;;;6.20;99.90;;;;;;5145233;27;20216;-71
2021/01/30 10:19:33;;;;;;;4.38;3.13;;;6.30;99.90;;;;;;5134596;27;20648;-72
2021/01/30 10:22:12;;;;;;;3.80;2.85;;;6.30;99.90;;;;;;5134437;27;20207;-71
2021/01/30 10:24:38;;;;;;;3.25;2.95;;;6.20;99.90;;;;;;5134905;27;20273;-72
2021/01/30 10:27:14;;;;;;;2.75;2.53;;;6.20;99.90;;;;;;5134887;27;20195;-71
2021/01/30 10:29:40;;;;;;;3.92;3.10;;;6.20;99.90;;;;;;5134617;27;20196;-71
2021/01/30 10:32:12;;;;;;;3.45;3.10;;;6.20;99.90;;;;;;5134401;27;20219;-71
2021/01/30 10:34:42;;;;;;;4.45;3.55;;;6.20;99.90;;;;;;5135053;27;20215;-71
2021/01/30 10:37:13;;;;;;;5.35;3.40;;;6.10;99.90;;;;;;5133741;27;20216;-72
2021/01/30 10:39:44;;;;;;;4.85;3.65;;;6.10;99.90;;;;;;5134454;27;20207;-71
2021/01/30 10:42:17;;;;;;;3.95;2.88;;;6.20;99.90;;;;;;5147609;27;20239;-71
2021/01/30 10:44:46;;;;;;;3.40;3.10;;;6.20;99.90;;;;;;5154835;27;20267;-72
2021/01/30 10:47:13;;;;;;;3.97;3.58;;;6.20;99.90;;;;;;5141598;27;20192;-72
2021/01/30 10:49:40;;;;;;;5.15;4.15;;;6.10;99.90;;;;;;5134511;27;20225;-72
2021/01/30 10:52:14;;;;;;;3.95;3.38;;;6.10;99.90;;;;;;5134142;27;20235;-71
2021/01/30 10:54:42;;;;;;;5.22;4.50;;;6.10;99.90;;;;;;5134016;27;20207;-72
2021/01/30 10:57:23;;;;;;;6.55;5.13;;;6.20;99.90;;;;;;5137942;27;20227;-74
2021/01/30 10:59:52;;;;;;;4.40;4.00;;;6.20;99.90;;;;;;5133503;27;20740;-77
2021/01/30 11:02:34;;;;;;;3.90;3.50;;;6.20;99.90;;;;;;5133177;27;20215;-72
2021/01/30 11:05:08;;;;;;;4.45;4.05;;;6.30;99.90;;;;;;5137703;27;20546;-73
2021/01/30 11:07:46;;;;;;;4.35;3.95;;;6.30;99.90;;;;;;5154475;27;20176;-71
2021/01/30 11:10:22;;;;;;;4.80;4.30;;;6.20;99.90;;;;;;5154358;27;20187;-72
2021/01/30 11:12:49;;;;;;;3.35;3.05;;;6.20;99.90;;;;;;5152819;27;20191;-72
2021/01/30 11:15:19;;;;;;;3.97;3.50;;;6.20;99.90;;;;;;5133098;27;20200;-71
2021/01/30 11:17:46;;;;;;;3.28;2.80;;;6.20;99.90;;;;;;5133202;27;20587;-71
2021/01/30 11:20:14;;;;;;;4.00;3.60;;;6.20;99.90;;;;;;5132329;27;20200;-70
2021/01/30 11:22:51;;;;;;;4.47;4.10;;;6.10;99.90;;;;;;5133825;27;20219;-71
2021/01/30 11:25:17;;;;;;;3.95;3.55;;;6.00;99.90;;;;;;5134164;27;20196;-70
2021/01/30 11:27:46;;;;;;;5.65;3.45;;;5.90;99.90;;;;;;5155390;27;20187;-71
2021/01/30 11:30:15;;;;;;;4.38;3.75;;;5.90;99.90;;;;;;5155008;27;20286;-72
2021/01/30 11:32:43;;;;;;;3.80;3.50;;;5.90;99.90;;;;;;5146461;27;20192;-70
2021/01/30 11:35:14;;;;;;;4.90;3.80;;;5.90;99.90;;;;;;5141402;27;20207;-70
2021/01/30 11:37:40;;;;;;;6.88;4.07;;;5.90;99.90;;;;;;5149760;27;20207;-71
2021/01/30 11:40:12;;;;;;;6.70;3.88;;;5.90;99.90;;;;;;5152902;27;20691;-72
2021/01/30 11:42:38;;;;;;;9.20;4.25;;;5.90;99.90;;;;;;5155009;27;20187;-70
2021/01/30 11:45:07;;;;;;;4.40;3.83;;;5.90;99.90;;;;;;5153902;27;20191;-70
2021/01/30 11:47:33;;;;;;;5.78;3.95;;;6.00;99.90;;;;;;5154174;27;20187;-70
2021/01/30 11:50:00;;;;;;;7.65;3.92;;;6.00;99.90;;;;;;5135982;27;20225;-71
2021/01/30 11:52:28;;;;;;;7.88;4.55;;;5.90;99.90;;;;;;5133601;27;20224;-72
2021/01/30 11:54:54;;;;;;;9.73;5.53;;;5.90;99.90;;;;;;5133901;27;20210;-72
2021/01/30 11:57:21;;;;;;;6.25;4.55;;;5.90;99.90;;;;;;5132832;27;20220;-71
2021/01/30 11:59:48;;;;;;;10.02;4.45;;;5.90;99.90;;;;;;5132364;27;20196;-73
2021/01/30 12:02:16;;;;;;;9.77;4.80;;;5.90;99.90;;;;;;5132445;27;20199;-72
2021/01/30 12:04:43;;;;;;;5.18;3.50;;;6.00;99.90;;;;;;5132261;27;20192;-71
2021/01/30 12:07:09;;;;;;;3.92;3.60;;;6.00;99.90;;;;;;5151108;27;20247;-71
2021/01/30 12:09:35;;;;;;;8.65;5.50;;;5.90;99.90;;;;;;5152427;27;20203;-71
2021/01/30 12:12:02;;;;;;;10.23;5.65;;;5.90;99.90;;;;;;5132654;27;20196;-72
2021/01/30 12:14:29;;;;;;;6.05;4.90;;;5.90;99.90;;;;;;5151228;27;20267;-72
2021/01/30 12:16:56;;;;;;;5.15;4.65;;;5.90;99.90;;;;;;5153054;27;20219;-71
2021/01/30 12:19:23;;;;;;;6.20;4.60;;;5.90;99.90;;;;;;5138121;27;20204;-73
2021/01/30 12:21:49;;;;;;;9.32;5.60;;;5.90;99.90;;;;;;5131637;27;20264;-71
2021/01/30 12:24:15;;;;;;;6.45;4.50;;;6.00;99.90;;;;;;5142288;27;20199;-73
2021/01/30 12:26:41;;;;;;;7.40;5.15;;;5.90;99.90;;;;;;5143067;27;20188;-71
2021/01/30 12:29:08;;;;;;;6.35;4.65;;;5.90;99.90;;;;;;5139568;27;20203;-70
2021/01/30 12:31:35;;;;;;;8.50;5.05;;;5.90;99.90;;;;;;5152773;27;20200;-72
2021/01/30 12:34:01;;;;;;;8.75;4.90;;;6.00;99.90;;;;;;5149345;27;20256;-73
2021/01/30 12:36:27;;;;;;;5.35;3.65;;;6.00;99.90;;;;;;5141872;27;20207;-71
2021/01/30 12:38:54;;;;;;;8.73;4.93;;;6.00;99.90;;;;;;5153541;27;20196;-72
2021/01/30 12:41:20;;;;;;;7.32;4.35;;;6.10;99.90;;;;;;5138181;27;20257;-70
2021/01/30 12:43:46;;;;;;;5.50;3.53;;;6.10;99.90;;;;;;5140968;27;20215;-70
2021/01/30 12:46:13;;;;;;;5.80;4.38;;;6.10;99.90;;;;;;5133413;27;20214;-71
2021/01/30 12:48:40;;;;;;;4.95;4.03;;;6.10;99.90;;;;;;5149479;27;20195;-71
2021/01/30 12:51:06;;;;;;;7.47;4.03;;;6.10;99.90;;;;;;5135442;27;21623;-72
2021/01/30 12:53:32;;;;;;;6.88;4.75;;;6.10;99.90;;;;;;5148033;27;20736;-71
2021/01/30 12:55:59;;;;;;;9.07;5.40;;;6.00;99.90;;;;;;5141117;27;20195;-72
2021/01/30 12:58:27;;;;;;;4.80;3.97;;;6.00;99.90;;;;;;5136712;27;20290;-71
2021/01/30 13:00:54;;;;;;;4.78;3.90;;;6.10;99.90;;;;;;5146258;27;20192;-71
2021/01/30 13:03:23;;;;;;;7.57;5.03;;;6.00;99.90;;;;;;5147344;27;20203;-79
2021/01/30 13:05:51;;;;;;;4.90;4.28;;;6.00;99.90;;;;;;5149767;27;20199;-78
2021/01/30 13:08:18;;;;;;;4.40;3.70;;;6.10;99.90;;;;;;5132741;27;20252;-78
2021/01/30 13:10:45;;;;;;;4.40;3.45;;;6.10;99.90;;;;;;5139365;27;20200;-79
2021/01/30 13:13:11;;;;;;;4.22;3.45;;;6.10;99.90;;;;;;5142807;27;20581;-76
2021/01/30 13:15:38;;;;;;;4.32;3.15;;;6.10;99.90;;;;;;5139672;27;20199;-75
2021/01/30 13:18:05;;;;;;;4.13;3.63;;;6.10;99.90;;;;;;5152577;27;20246;-77
2021/01/30 13:20:31;;;;;;;5.03;3.85;;;6.10;99.90;;;;;;5142389;27;20700;-79